Time;durP1;ratioP1;P1;durP2;ratioP2;P2;SDS_P1;SDS_P2;PMS_P1;PMS_P2;Temp;Humidity;BMP_temperature;BMP_pressure;BME280_temperature;BME280_humidity;BME280_pressure;Samples;Min_cycle;Max_cycle;Signal;HPM_P1;HPM_P2
2023/06/05 00:00:21;;;;;;;12.57;8.60;;;;;;;15.06;100.00;95290.28;5042415;28;20187;-79
2023/06/05 00:02:47;;;;;;;12.77;9.25;;;;;;;15.06;100.00;95283.13;5043703;28;20192;-79
2023/06/05 00:05:13;;;;;;;11.10;9.13;;;;;;;15.03;100.00;95288.09;5035946;28;20623;-79
2023/06/05 00:07:38;;;;;;;12.90;9.88;;;;;;;15.00;100.00;95289.34;5034728;28;20176;-79
2023/06/05 00:10:08;;;;;;;9.80;8.02;;;;;;;15.01;100.00;95290.16;5035649;28;20152;-78
2023/06/05 00:12:34;;;;;;;13.40;9.15;;;;;;;14.72;100.00;95241.44;5042926;28;20182;-78
2023/06/05 00:15:01;;;;;;;18.42;8.88;;;;;;;14.99;100.00;95293.03;5043774;28;20539;-78
2023/06/05 00:17:27;;;;;;;12.60;8.70;;;;;;;14.93;100.00;95286.00;5043800;28;20167;-78
2023/06/05 00:19:52;;;;;;;13.50;10.25;;;;;;;14.97;100.00;95295.09;5043326;28;20674;-79
2023/06/05 00:22:18;;;;;;;10.30;8.45;;;;;;;14.92;100.00;95292.31;5043074;28;20171;-79
2023/06/05 00:24:43;;;;;;;12.27;7.82;;;;;;;14.88;100.00;95285.03;5042682;28;20258;-79
2023/06/05 00:27:08;;;;;;;10.57;8.50;;;;;;;14.89;100.00;95287.47;5045046;28;20309;-78
2023/06/05 00:29:34;;;;;;;11.27;9.00;;;;;;;14.70;100.00;95262.09;5044022;28;20631;-79
2023/06/05 00:31:59;;;;;;;12.68;8.38;;;;;;;14.83;100.00;95288.38;5043782;28;20172;-78
2023/06/05 00:34:25;;;;;;;11.97;8.67;;;;;;;14.87;100.00;95284.25;5041609;28;20176;-78
2023/06/05 00:36:50;;;;;;;13.55;7.78;;;;;;;14.85;100.00;95282.88;5040654;28;20263;-78
2023/06/05 00:39:18;;;;;;;11.00;8.82;;;;;;;14.84;100.00;95287.34;5034138;28;20251;-78
2023/06/05 00:41:45;;;;;;;10.87;7.77;;;;;;;14.82;100.00;95286.75;5041664;28;20643;-78
2023/06/05 00:44:11;;;;;;;9.50;7.67;;;;;;;14.84;100.00;95294.50;5041610;28;20178;-78
2023/06/05 00:46:40;;;;;;;16.53;8.27;;;;;;;14.84;100.00;95284.69;5045264;28;20226;-78
2023/06/05 00:49:06;;;;;;;12.80;8.53;;;;;;;14.87;100.00;95284.25;5047796;28;20171;-78
2023/06/05 00:51:32;;;;;;;8.88;7.47;;;;;;;14.85;100.00;95280.22;5043366;28;20219;-78
2023/06/05 00:53:58;;;;;;;11.50;8.10;;;;;;;14.77;100.00;95276.03;5042256;28;20175;-79
2023/06/05 00:56:24;;;;;;;17.45;8.45;;;;;;;14.76;100.00;95278.91;5044371;28;20183;-78
2023/06/05 00:58:49;;;;;;;13.57;8.95;;;;;;;14.59;100.00;95265.50;5038656;28;20183;-78
2023/06/05 01:01:16;;;;;;;13.13;9.90;;;;;;;14.53;100.00;95274.34;5041855;28;20427;-78
2023/06/05 01:03:44;;;;;;;10.57;8.02;;;;;;;14.50;100.00;95246.47;5037472;28;20635;-78
2023/06/05 01:06:11;;;;;;;11.60;7.88;;;;;;;14.72;100.00;95273.25;5034197;28;20156;-78
2023/06/05 01:08:41;;;;;;;13.70;8.30;;;;;;;14.49;100.00;95239.53;5043772;28;20175;-79
2023/06/05 01:11:28;;;;;;;11.90;7.23;;;;;;;14.71;100.00;95261.84;5042332;28;20596;-79
2023/06/05 01:14:16;;;;;;;15.27;7.80;;;;;;;14.62;100.00;95234.03;5044946;28;20179;-79
2023/06/05 01:16:44;;;;;;;10.13;7.38;;;;;;;14.72;100.00;95247.56;5041453;28;20211;-79
2023/06/05 01:19:14;;;;;;;11.10;7.97;;;;;;;14.83;100.00;95267.19;5053436;28;20175;-79
2023/06/05 01:21:40;;;;;;;11.93;8.03;;;;;;;14.72;100.00;95257.34;5053459;28;20549;-78
2023/06/05 01:24:06;;;;;;;10.57;8.10;;;;;;;14.51;100.00;95218.94;5053147;28;20167;-79
2023/06/05 01:26:52;;;;;;;10.47;7.33;;;;;;;14.45;100.00;95206.56;5053134;28;20175;-79
2023/06/05 01:29:25;;;;;;;13.70;8.53;;;;;;;14.60;100.00;95233.47;5053643;28;20174;-79
2023/06/05 01:31:58;;;;;;;9.40;6.57;;;;;;;14.57;100.00;95225.97;5053278;28;20159;-79
2023/06/05 01:34:26;;;;;;;8.05;6.90;;;;;;;14.75;100.00;95248.13;5048386;28;20180;-79
2023/06/05 01:36:54;;;;;;;9.07;7.72;;;;;;;14.76;100.00;95247.09;5043637;28;20616;-79
2023/06/05 01:39:21;;;;;;;12.60;7.63;;;;;;;14.77;100.00;95233.63;5041141;28;20244;-79
2023/06/05 01:41:49;;;;;;;10.70;7.30;;;;;;;14.78;100.00;95245.06;5042929;28;20255;-79
2023/06/05 01:44:15;;;;;;;11.00;7.73;;;;;;;14.70;100.00;95241.66;5052580;28;20578;-79
2023/06/05 01:46:41;;;;;;;12.07;7.33;;;;;;;14.61;100.00;95221.03;5049129;28;20234;-79
2023/06/05 01:49:08;;;;;;;15.97;8.50;;;;;;;14.72;100.00;95244.91;5042180;28;20172;-79
2023/06/05 01:51:33;;;;;;;11.43;7.80;;;;;;;14.73;100.00;95249.16;5041729;28;20298;-79
2023/06/05 01:53:59;;;;;;;10.57;6.70;;;;;;;14.73;100.00;95248.38;5044131;28;20275;-78
2023/06/05 01:56:25;;;;;;;12.10;7.60;;;;;;;14.69;100.00;95240.06;5041800;28;20583;-78
2023/06/05 01:58:52;;;;;;;9.23;7.47;;;;;;;14.69;99.92;95252.50;5044218;28;20179;-78
2023/06/05 02:01:22;;;;;;;12.43;7.43;;;;;;;14.52;100.00;95223.22;5038555;28;20203;-78
2023/06/05 02:03:49;;;;;;;12.30;7.28;;;;;;;14.63;100.00;95243.59;5042990;28;20187;-78
2023/06/05 02:06:16;;;;;;;11.25;7.10;;;;;;;14.58;100.00;95238.19;5040708;28;20171;-78
2023/06/05 02:08:42;;;;;;;9.83;7.40;;;;;;;14.48;100.00;95224.69;5040757;28;20238;-78
2023/06/05 02:11:10;;;;;;;9.27;7.20;;;;;;;14.43;100.00;95210.50;5044404;28;20630;-78
2023/06/05 02:13:39;;;;;;;12.43;7.97;;;;;;;14.57;100.00;95241.06;5040863;28;20628;-77
2023/06/05 02:16:07;;;;;;;8.87;6.87;;;;;;;14.46;99.78;95232.03;5041414;28;20175;-78
2023/06/05 02:18:36;;;;;;;14.50;7.13;;;;;;;14.44;100.00;95242.06;5032324;28;20544;-78
2023/06/05 02:21:02;;;;;;;7.93;6.70;;;;;;;14.43;100.00;95235.16;5032316;28;20203;-78
2023/06/05 02:23:28;;;;;;;12.07;7.17;;;;;;;14.44;100.00;95242.06;5033368;28;20160;-78
2023/06/05 02:25:54;;;;;;;8.80;7.33;;;;;;;14.46;100.00;95239.16;5039114;28;20238;-78
2023/06/05 02:28:20;;;;;;;9.63;7.10;;;;;;;14.47;100.00;95240.78;5042574;28;20209;-78
2023/06/05 02:30:47;;;;;;;12.17;8.10;;;;;;;14.45;100.00;95248.16;5037338;28;20159;-77
2023/06/05 02:33:14;;;;;;;15.03;8.03;;;;;;;14.25;100.00;95230.69;5036487;28;20971;-78
2023/06/05 02:35:40;;;;;;;11.37;7.60;;;;;;;14.14;100.00;95220.03;5032499;28;20160;-77
2023/06/05 02:38:08;;;;;;;11.23;7.43;;;;;;;14.18;100.00;95221.22;5043056;28;20194;-78
2023/06/05 02:40:33;;;;;;;11.60;8.10;;;;;;;14.32;100.00;95239.34;5042521;28;20199;-78
2023/06/05 02:42:58;;;;;;;14.10;8.60;;;;;;;14.32;100.00;95243.81;5040315;28;20535;-78
2023/06/05 02:45:24;;;;;;;12.43;8.20;;;;;;;14.25;100.00;95249.22;5033999;28;20175;-78
2023/06/05 02:47:49;;;;;;;11.37;7.40;;;;;;;14.17;100.00;95238.94;5041360;28;20593;-78
2023/06/05 02:50:15;;;;;;;9.17;7.30;;;;;;;14.19;100.00;95242.13;5038345;28;20568;-78
2023/06/05 02:52:40;;;;;;;12.80;8.23;;;;;;;14.20;100.00;95237.66;5042318;28;20221;-78
2023/06/05 02:55:07;;;;;;;12.97;8.67;;;;;;;14.20;100.00;95237.66;5042480;28;20187;-78
2023/06/05 02:57:41;;;;;;;11.63;7.83;;;;;;;14.14;100.00;95235.91;5040229;28;20194;-78
2023/06/05 03:00:16;;;;;;;11.02;8.27;;;;;;;13.96;100.00;95245.50;5043419;28;20436;-78
2023/06/05 03:02:48;;;;;;;9.50;7.73;;;;;;;13.75;100.00;95234.56;5043890;28;20171;-78
2023/06/05 03:05:14;;;;;;;10.20;7.43;;;;;;;13.94;100.00;95249.38;5043913;28;20174;-78
2023/06/05 03:07:40;;;;;;;17.77;7.63;;;;;;;14.00;100.00;95237.13;5045227;28;20171;-78
2023/06/05 03:10:07;;;;;;;11.47;8.63;;;;;;;14.09;100.00;95259.63;5045384;28;21098;-78
2023/06/05 03:12:33;;;;;;;12.10;8.47;;;;;;;14.14;100.00;95255.25;5044088;28;20198;-78
2023/06/05 03:14:58;;;;;;;16.30;9.13;;;;;;;14.18;100.00;95251.13;5046348;28;20201;-78
2023/06/05 03:17:24;;;;;;;13.80;9.03;;;;;;;14.22;100.00;95257.59;5044770;28;20215;-78
2023/06/05 03:19:50;;;;;;;19.20;11.77;;;;;;;14.03;100.00;95240.09;5043815;28;20222;-78
2023/06/05 03:22:17;;;;;;;14.90;9.93;;;;;;;14.18;100.00;95258.28;5044992;28;20167;-78
2023/06/05 03:24:42;;;;;;;17.40;11.60;;;;;;;14.21;100.00;95269.22;5044299;28;20192;-78
2023/06/05 03:27:08;;;;;;;16.47;10.63;;;;;;;14.25;100.00;95265.09;5045539;28;20654;-77
2023/06/05 03:29:33;;;;;;;18.47;11.97;;;;;;;14.26;100.00;95261.44;5044500;28;20167;-77
2023/06/05 03:31:59;;;;;;;20.83;12.00;;;;;;;14.35;100.00;95270.69;5044391;28;20168;-79
2023/06/05 03:34:25;;;;;;;16.60;11.70;;;;;;;14.45;100.00;95274.63;5045783;28;20194;-78
2023/06/05 03:36:51;;;;;;;15.38;11.32;;;;;;;14.38;100.00;95245.56;5042898;28;20572;-83
2023/06/05 03:39:17;;;;;;;23.60;11.77;;;;;;;14.65;100.00;95273.34;5044465;28;20171;-81
2023/06/05 03:41:42;;;;;;;17.93;11.60;;;;;;;14.75;100.00;95280.75;5042227;28;20736;-76
2023/06/05 03:44:08;;;;;;;19.30;11.63;;;;;;;14.83;100.00;95272.47;5040429;28;20184;-77
2023/06/05 03:46:35;;;;;;;22.10;12.98;;;;;;;14.89;100.00;95274.22;5046293;28;20175;-77
2023/06/05 03:49:05;;;;;;;19.55;12.73;;;;;;;14.98;100.00;95264.09;5042281;28;20199;-77
2023/06/05 03:51:30;;;;;;;22.58;13.13;;;;;;;15.08;100.00;95264.34;5046036;28;20205;-77
2023/06/05 03:53:59;;;;;;;23.47;13.63;;;;;;;15.12;100.00;95262.88;5045581;28;20175;-77
2023/06/05 03:56:28;;;;;;;21.43;13.07;;;;;;;15.26;100.00;95272.22;5045738;28;20186;-78
2023/06/05 03:58:55;;;;;;;28.02;13.95;;;;;;;15.38;100.00;95262.44;5032981;28;20586;-76
2023/06/05 04:01:21;;;;;;;19.03;13.07;;;;;;;15.26;100.00;95218.34;5041261;28;20711;-78
2023/06/05 04:03:46;;;;;;;20.60;13.18;;;;;;;15.68;100.00;95254.34;5044491;28;20183;-79
2023/06/05 04:06:11;;;;;;;19.77;11.90;;;;;;;15.89;100.00;95276.03;5052134;28;20179;-80
2023/06/05 04:08:37;;;;;;;18.85;11.80;;;;;;;16.03;100.00;95272.88;5043022;28;20179;-79
2023/06/05 04:11:03;;;;;;;17.13;11.30;;;;;;;16.17;100.00;95268.94;5043169;28;20260;-79
2023/06/05 04:13:29;;;;;;;16.83;11.68;;;;;;;16.38;99.31;95279.97;5036027;28;20182;-78
2023/06/05 04:15:55;;;;;;;14.25;10.55;;;;;;;16.43;99.28;95272.09;5036210;28;20159;-79
2023/06/05 04:18:20;;;;;;;21.63;13.40;;;;;;;16.62;99.42;95281.53;5042820;28;20956;-82
2023/06/05 04:20:45;;;;;;;16.30;11.90;;;;;;;16.75;98.82;95267.94;5042900;28;20219;-80
2023/06/05 04:23:11;;;;;;;21.33;12.27;;;;;;;16.82;98.25;95262.47;5044331;28;20262;-81
2023/06/05 04:25:36;;;;;;;23.00;12.23;;;;;;;17.18;98.02;95293.97;5040539;28;20179;-80
2023/06/05 04:28:03;;;;;;;22.95;13.13;;;;;;;17.36;97.46;95279.63;5042379;28;20211;-81
2023/06/05 04:30:29;;;;;;;26.63;13.30;;;;;;;17.43;96.23;95269.59;5045785;28;20163;-83
2023/06/05 04:32:55;;;;;;;21.30;12.20;;;;;;;17.30;95.90;95253.94;5042298;28;20262;-83
2023/06/05 04:35:21;;;;;;;17.25;12.32;;;;;;;17.17;95.63;95231.16;5043172;28;20271;-83
2023/06/05 04:37:47;;;;;;;18.85;12.73;;;;;;;17.13;96.03;95231.88;5038968;28;20195;-84
2023/06/05 04:40:17;;;;;;;24.08;12.52;;;;;;;17.33;96.31;95277.44;5041134;28;20231;-84
2023/06/05 04:42:43;;;;;;;19.23;11.95;;;;;;;16.97;96.61;95222.84;5041684;28;20203;-84
2023/06/05 04:45:09;;;;;;;18.70;13.18;;;;;;;17.22;96.96;95270.31;5040794;28;20175;-83
2023/06/05 04:47:35;;;;;;;19.98;13.90;;;;;;;17.01;96.34;95249.78;5044656;28;20202;-80
2023/06/05 04:50:05;;;;;;;20.45;13.05;;;;;;;17.05;97.39;95256.19;5043216;28;20176;-82
2023/06/05 04:52:31;;;;;;;19.05;13.50;;;;;;;17.21;96.92;95277.50;5043269;28;20235;-84
2023/06/05 04:54:57;;;;;;;19.02;13.40;;;;;;;17.15;96.82;95280.31;5041770;28;20191;-85
2023/06/05 04:57:25;;;;;;;18.60;12.43;;;;;;;16.81;97.38;95239.59;5042034;28;20183;-82
2023/06/05 04:59:50;;;;;;;20.58;14.68;;;;;;;17.19;97.80;95286.78;5041977;28;20206;-81
2023/06/05 05:02:16;;;;;;;20.65;13.38;;;;;;;17.48;99.02;95285.66;5044177;28;20179;-80
2023/06/05 05:04:42;;;;;;;16.92;13.30;;;;;;;17.73;98.08;95272.75;5043719;28;20176;-80
2023/06/05 05:07:13;;;;;;;16.85;12.13;;;;;;;17.95;95.08;95280.78;5041012;28;20199;-79
2023/06/05 05:09:38;;;;;;;20.48;13.20;;;;;;;18.02;94.57;95272.59;5040646;28;20207;-84
2023/06/05 05:12:04;;;;;;;22.00;13.35;;;;;;;18.22;93.78;95283.53;5043389;28;20210;-81
2023/06/05 05:14:29;;;;;;;22.55;15.13;;;;;;;18.25;93.94;95280.34;5044725;28;20183;-77
2023/06/05 05:16:55;;;;;;;28.50;17.80;;;;;;;18.28;93.55;95282.53;5040855;28;20191;-77
2023/06/05 05:19:21;;;;;;;19.77;13.40;;;;;;;18.35;93.16;95277.81;5044623;28;20309;-79
2023/06/05 05:21:47;;;;;;;23.92;14.90;;;;;;;18.45;92.85;95285.94;5041959;28;20183;-80
2023/06/05 05:24:13;;;;;;;24.30;15.65;;;;;;;18.68;92.61;95278.78;5041196;28;20271;-79
2023/06/05 05:26:40;;;;;;;22.52;14.77;;;;;;;18.75;91.96;95274.84;5037047;28;20222;-83
2023/06/05 05:29:06;;;;;;;22.17;13.25;;;;;;;18.98;92.90;95264.91;5036578;28;20187;-80
2023/06/05 05:31:32;;;;;;;22.25;14.82;;;;;;;19.35;93.29;95265.78;5035917;28;20186;-81
2023/06/05 05:33:58;;;;;;;18.02;10.95;;;;;;;19.51;87.73;95270.19;5039260;28;20167;-83
2023/06/05 05:36:24;;;;;;;15.95;9.90;;;;;;;19.38;87.08;95246.56;5042711;28;20914;-84
2023/06/05 05:38:50;;;;;;;16.33;11.30;;;;;;;19.71;87.24;95284.78;5043253;28;20634;-84
2023/06/05 05:41:15;;;;;;;14.75;9.90;;;;;;;19.84;87.11;95286.97;5048208;28;20194;-82
2023/06/05 05:43:41;;;;;;;15.25;9.85;;;;;;;19.80;84.96;95292.06;5045882;28;20254;-81
2023/06/05 05:46:06;;;;;;;20.17;10.27;;;;;;;19.54;84.94;95264.34;5041685;28;20195;-81
2023/06/05 05:48:35;;;;;;;17.25;9.43;;;;;;;19.54;86.11;95263.56;5042145;28;20240;-81
2023/06/05 05:51:00;;;;;;;17.05;9.75;;;;;;;19.86;85.57;95274.97;5042747;28;20205;-81
2023/06/05 05:53:26;;;;;;;14.05;10.18;;;;;;;19.80;83.58;95256.50;5049585;28;20691;-81
2023/06/05 05:55:51;;;;;;;23.00;9.15;;;;;;;19.67;85.26;95252.41;5049469;28;20245;-81
2023/06/05 05:58:17;;;;;;;13.00;8.60;;;;;;;19.87;84.54;95275.78;5049437;28;20702;-81
2023/06/05 06:00:42;;;;;;;11.93;9.05;;;;;;;20.00;84.84;95269.16;5047980;28;20229;-81
2023/06/05 06:03:08;;;;;;;14.20;9.50;;;;;;;19.76;84.47;95226.81;5028901;28;20176;-81
2023/06/05 06:05:34;;;;;;;15.85;9.38;;;;;;;19.94;84.08;95273.69;5027713;28;20642;-79
2023/06/05 06:08:00;;;;;;;14.13;9.35;;;;;;;19.98;83.16;95272.09;5027359;28;20535;-78
2023/06/05 06:10:26;;;;;;;13.35;9.93;;;;;;;19.81;83.83;95239.38;5032243;28;20175;-81
2023/06/05 06:12:51;;;;;;;13.82;8.88;;;;;;;19.89;83.84;95276.34;5043169;28;20527;-81
2023/06/05 06:15:17;;;;;;;18.17;9.30;;;;;;;19.94;84.12;95282.50;5030470;28;20659;-81
2023/06/05 06:17:42;;;;;;;10.70;8.52;;;;;;;19.82;84.63;95263.19;5041297;28;20649;-81
2023/06/05 06:20:11;;;;;;;14.18;9.55;;;;;;;19.72;84.10;95246.31;5041804;28;20210;-81
2023/06/05 06:22:36;;;;;;;14.52;9.15;;;;;;;19.73;85.33;95221.97;5030509;28;20195;-81
2023/06/05 06:25:03;;;;;;;13.05;8.25;;;;;;;20.03;83.28;95274.00;5036563;28;20175;-81
2023/06/05 06:27:28;;;;;;;19.38;8.45;;;;;;;20.17;83.40;95278.59;5038512;28;20663;-79
2023/06/05 06:29:54;;;;;;;11.10;7.72;;;;;;;20.05;83.28;95267.34;5033139;28;20199;-78
2023/06/05 06:32:20;;;;;;;13.40;8.55;;;;;;;20.03;82.73;95265.97;5045399;28;20176;-78
2023/06/05 06:34:46;;;;;;;13.15;9.25;;;;;;;19.95;83.00;95268.09;5048722;28;20313;-78
2023/06/05 06:37:15;;;;;;;12.98;9.23;;;;;;;20.06;85.22;95257.44;5039664;28;20198;-81
2023/06/05 06:39:44;;;;;;;13.07;9.23;;;;;;;20.01;82.81;95257.41;5028648;28;20238;-79
2023/06/05 06:42:10;;;;;;;12.40;9.02;;;;;;;20.01;81.91;95265.44;5037400;28;20569;-78
2023/06/05 06:44:36;;;;;;;11.50;8.55;;;;;;;19.86;82.25;95264.28;5047168;28;20183;-78
2023/06/05 06:47:02;;;;;;;11.75;8.25;;;;;;;19.78;82.84;95264.78;5041092;28;20270;-81
2023/06/05 06:49:27;;;;;;;11.80;8.55;;;;;;;19.84;83.09;95260.25;5030208;28;20624;-79
2023/06/05 06:51:53;;;;;;;15.10;8.30;;;;;;;19.88;81.79;95258.69;5037230;28;20227;-79
2023/06/05 06:54:19;;;;;;;12.30;8.70;;;;;;;19.82;82.48;95249.00;5028803;28;20179;-79
2023/06/05 06:56:44;;;;;;;12.75;8.88;;;;;;;19.97;82.27;95257.13;5040698;28;20190;-79
2023/06/05 06:59:13;;;;;;;11.25;8.35;;;;;;;20.09;82.54;95255.03;5048862;28;20231;-79
2023/06/05 07:01:46;;;;;;;12.40;9.10;;;;;;;20.30;81.06;95251.41;5048682;28;20712;-79
2023/06/05 07:04:16;;;;;;;11.48;8.52;;;;;;;20.60;80.25;95258.75;5028475;28;20184;-79
2023/06/05 07:06:48;;;;;;;15.48;8.25;;;;;;;20.52;78.83;95219.13;5043346;28;20182;-79
2023/06/05 07:09:13;;;;;;;15.73;9.40;;;;;;;20.94;78.67;95264.44;5032857;28;20179;-79
2023/06/05 07:11:39;;;;;;;12.27;8.82;;;;;;;21.12;78.42;95236.34;5030252;28;20179;-79
2023/06/05 07:14:04;;;;;;;14.02;9.63;;;;;;;21.53;75.71;95266.66;5045434;28;20183;-79
2023/06/05 07:16:31;;;;;;;19.33;10.60;;;;;;;21.63;74.06;95265.84;5044507;28;20186;-79
2023/06/05 07:18:57;;;;;;;13.95;9.70;;;;;;;21.54;74.04;95237.97;5029657;28;20690;-80
2023/06/05 07:21:22;;;;;;;16.00;10.32;;;;;;;21.86;73.78;95265.28;5040764;28;20210;-79
2023/06/05 07:23:51;;;;;;;13.38;9.57;;;;;;;21.70;72.80;95259.16;5048491;28;20194;-79
2023/06/05 07:26:17;;;;;;;23.98;9.88;;;;;;;21.30;74.68;95219.78;5041095;28;20568;-79
2023/06/05 07:28:43;;;;;;;15.70;10.70;;;;;;;21.50;74.05;95258.34;5028450;28;20271;-79
2023/06/05 07:31:08;;;;;;;15.63;9.85;;;;;;;21.57;74.92;95261.56;5039503;28;20172;-79
2023/06/05 07:33:34;;;;;;;16.75;9.85;;;;;;;21.37;77.20;95239.06;5045710;28;20202;-79
2023/06/05 07:36:00;;;;;;;18.35;10.82;;;;;;;21.63;73.19;95276.56;5033625;28;20339;-79
2023/06/05 07:38:26;;;;;;;14.77;10.48;;;;;;;21.63;73.48;95273.88;5028285;28;20840;-79
2023/06/05 07:40:52;;;;;;;15.82;11.10;;;;;;;21.60;74.45;95272.56;5028422;28;20199;-79
2023/06/05 07:43:17;;;;;;;16.27;10.35;;;;;;;21.49;74.51;95273.63;5030682;28;20201;-79
2023/06/05 07:45:43;;;;;;;18.00;10.50;;;;;;;21.51;74.58;95266.13;5031940;28;20180;-79
2023/06/05 07:48:08;;;;;;;15.82;10.18;;;;;;;21.24;74.50;95234.25;5033378;28;20267;-80
2023/06/05 07:50:34;;;;;;;16.00;10.20;;;;;;;21.42;74.87;95255.16;5031841;28;20271;-79
2023/06/05 07:52:59;;;;;;;17.77;10.38;;;;;;;21.63;74.09;95281.91;5035135;28;20697;-80
2023/06/05 07:55:24;;;;;;;17.85;9.90;;;;;;;21.53;73.91;95257.81;5051680;28;20228;-80
2023/06/05 07:57:53;;;;;;;17.42;10.70;;;;;;;21.70;73.26;95252.97;5032607;28;20211;-79
2023/06/05 08:00:19;;;;;;;18.75;10.40;;;;;;;21.99;73.28;95290.75;5046107;28;20195;-79
2023/06/05 08:02:44;;;;;;;13.80;9.98;;;;;;;22.26;72.94;95282.38;5042769;28;20190;-79
2023/06/05 08:05:10;;;;;;;15.27;10.13;;;;;;;22.29;72.29;95285.31;5033016;28;20180;-79
2023/06/05 08:07:35;;;;;;;16.13;10.32;;;;;;;22.35;72.50;95286.09;5043550;28;20678;-79
2023/06/05 08:10:01;;;;;;;17.42;9.95;;;;;;;22.09;71.13;95242.44;5031969;28;20211;-79
2023/06/05 08:12:26;;;;;;;12.90;9.32;;;;;;;22.16;71.75;95297.41;5038094;28;20234;-79
2023/06/05 08:14:51;;;;;;;16.05;10.40;;;;;;;22.10;72.20;95290.47;5045344;28;20172;-79
2023/06/05 08:17:17;;;;;;;15.25;10.45;;;;;;;22.00;72.64;95282.44;5045472;28;20233;-80
2023/06/05 08:19:43;;;;;;;16.75;9.57;;;;;;;21.58;71.34;95225.66;5038016;28;20706;-80
2023/06/05 08:22:08;;;;;;;14.45;9.52;;;;;;;21.90;72.94;95250.25;5031248;28;20205;-80
2023/06/05 08:24:34;;;;;;;16.30;9.25;;;;;;;22.37;72.20;95278.59;5036422;28;20206;-80
2023/06/05 08:27:00;;;;;;;19.33;10.55;;;;;;;22.44;71.86;95262.97;5049476;28;20273;-80
2023/06/05 08:29:27;;;;;;;15.23;9.00;;;;;;;22.65;70.62;95261.81;5042599;28;20656;-80
2023/06/05 08:31:53;;;;;;;14.02;9.38;;;;;;;22.81;69.61;95290.22;5041084;28;20171;-80
2023/06/05 08:34:18;;;;;;;18.70;10.93;;;;;;;22.71;70.02;95278.69;5044223;28;20190;-80
2023/06/05 08:36:44;;;;;;;16.95;9.75;;;;;;;22.98;71.31;95270.25;5033459;28;20184;-80
2023/06/05 08:39:10;;;;;;;15.57;10.32;;;;;;;23.35;71.54;95294.72;5036816;28;20176;-80
2023/06/05 08:41:35;;;;;;;15.60;9.52;;;;;;;23.58;69.15;95298.59;5030877;28;20210;-80
2023/06/05 08:44:01;;;;;;;14.40;8.93;;;;;;;23.43;66.93;95306.75;5040898;28;20183;-80
2023/06/05 08:46:30;;;;;;;13.50;9.82;;;;;;;23.58;67.81;95306.66;5045182;28;20187;-80
2023/06/05 08:48:57;;;;;;;12.68;9.15;;;;;;;23.46;66.81;95298.13;5032959;28;20343;-80
2023/06/05 08:51:22;;;;;;;14.95;9.88;;;;;;;23.22;68.72;95269.28;5046517;28;20206;-80
2023/06/05 08:53:56;;;;;;;14.57;8.68;;;;;;;23.22;69.32;95265.78;5047231;28;20650;-80
2023/06/05 08:56:22;;;;;;;12.45;7.82;;;;;;;23.28;66.62;95278.91;5042187;28;20210;-80
2023/06/05 08:58:49;;;;;;;12.40;8.73;;;;;;;23.38;68.79;95294.16;5033297;28;20183;-80
2023/06/05 09:01:14;;;;;;;12.25;8.65;;;;;;;23.16;66.77;95274.97;5030513;28;20249;-80
2023/06/05 09:03:40;;;;;;;13.13;8.85;;;;;;;23.29;69.22;95269.75;5030419;28;20610;-80
2023/06/05 09:06:06;;;;;;;12.13;8.93;;;;;;;23.57;67.18;95292.44;5032256;28;20190;-80
2023/06/05 09:08:33;;;;;;;15.77;9.05;;;;;;;23.68;67.33;95301.22;5031398;28;20180;-80
2023/06/05 09:11:21;;;;;;;14.65;9.10;;;;;;;23.49;68.25;95292.22;5037498;28;20187;-80
2023/06/05 09:13:47;;;;;;;15.88;9.00;;;;;;;23.33;67.03;95291.50;5050250;28;20179;-80
2023/06/05 09:16:13;;;;;;;14.80;8.25;;;;;;;23.17;67.37;95290.81;5039809;28;20202;-80
2023/06/05 09:18:58;;;;;;;15.32;10.82;;;;;;;23.01;67.30;95291.97;5039462;28;20179;-79
2023/06/05 09:21:30;;;;;;;14.35;9.23;;;;;;;22.44;70.93;95257.63;5044109;28;20208;-80
2023/06/05 09:24:14;;;;;;;18.92;9.23;;;;;;;22.65;72.13;95277.94;5037995;28;20187;-81
2023/06/05 09:26:50;;;;;;;12.43;8.80;;;;;;;22.74;70.22;95288.91;5029644;28;20599;-81
2023/06/05 09:29:43;;;;;;;12.32;8.68;;;;;;;22.66;68.05;95286.78;5050131;28;20588;-80
2023/06/05 09:32:15;;;;;;;14.18;8.05;;;;;;;22.61;69.90;95292.16;5041891;28;20551;-80
2023/06/05 09:34:41;;;;;;;12.13;8.70;;;;;;;22.49;69.38;95279.84;5041719;28;20187;-79
2023/06/05 09:37:08;;;;;;;12.75;8.93;;;;;;;22.59;70.34;95300.47;5040491;28;20191;-79
2023/06/05 09:39:46;;;;;;;11.90;8.30;;;;;;;22.49;71.00;95282.53;5041723;28;20184;-79
2023/06/05 09:42:11;;;;;;;11.82;7.75;;;;;;;22.56;69.28;95258.91;5044540;28;20171;-80
2023/06/05 09:44:37;;;;;;;14.05;8.48;;;;;;;22.96;67.97;95283.97;5043901;28;20259;-82
2023/06/05 09:47:08;;;;;;;11.90;8.13;;;;;;;22.91;67.48;95282.13;5045064;28;20193;-80
2023/06/05 09:49:39;;;;;;;12.93;8.63;;;;;;;22.88;67.29;95284.53;5042536;28;20191;-81
2023/06/05 09:52:07;;;;;;;12.88;8.30;;;;;;;22.81;68.05;95274.13;5040454;28;20216;-80
2023/06/05 09:54:36;;;;;;;12.23;7.75;;;;;;;22.85;68.58;95277.03;5041039;28;20176;-80
2023/06/05 09:57:03;;;;;;;10.32;7.72;;;;;;;22.64;68.60;95238.75;5039886;28;20257;-80
2023/06/05 09:59:31;;;;;;;10.70;7.22;;;;;;;22.79;69.05;95270.91;5034008;28;20199;-80
2023/06/05 10:02:00;;;;;;;12.40;7.28;;;;;;;22.39;69.38;95252.28;5041112;28;20633;-81
2023/06/05 10:04:27;;;;;;;11.57;8.55;;;;;;;22.28;69.66;95264.13;5037987;28;20249;-80
2023/06/05 10:07:01;;;;;;;14.40;7.43;;;;;;;22.12;69.91;95258.00;5040345;28;20203;-82
2023/06/05 10:09:29;;;;;;;11.57;7.22;;;;;;;22.08;71.04;95232.81;5039168;28;20178;-81
2023/06/05 10:11:55;;;;;;;11.55;7.30;;;;;;;22.06;68.96;95238.44;5046100;28;20228;-82
2023/06/05 10:14:21;;;;;;;10.32;6.93;;;;;;;22.38;69.56;95264.91;5041053;28;20179;-82
2023/06/05 10:16:54;;;;;;;14.73;8.00;;;;;;;22.41;69.59;95274.25;5040244;28;20168;-82
2023/06/05 10:19:20;;;;;;;18.08;8.32;;;;;;;22.43;71.28;95269.44;5041413;28;20263;-81
2023/06/05 10:21:50;;;;;;;11.43;7.53;;;;;;;22.44;70.84;95271.03;5040551;28;20198;-81
2023/06/05 10:24:23;;;;;;;13.95;7.72;;;;;;;22.35;71.63;95246.66;5039970;28;20168;-80
2023/06/05 10:27:10;;;;;;;11.75;7.30;;;;;;;22.51;74.23;95274.22;5042098;28;20167;-78
2023/06/05 10:29:59;;;;;;;12.60;6.78;;;;;;;22.42;70.18;95278.53;5041638;28;20186;-79
2023/06/05 10:32:31;;;;;;;10.88;6.93;;;;;;;22.17;70.68;95263.34;5042028;28;20171;-80
2023/06/05 10:35:12;;;;;;;12.23;7.35;;;;;;;22.16;70.36;95261.72;5040384;28;20183;-78
2023/06/05 10:37:52;;;;;;;9.30;6.43;;;;;;;22.32;71.66;95259.81;5044961;28;20182;-83
2023/06/05 10:40:19;;;;;;;10.98;7.60;;;;;;;22.53;72.93;95243.34;5040131;28;20240;-81
2023/06/05 10:42:44;;;;;;;12.60;7.88;;;;;;;22.82;73.87;95237.31;5035384;28;20202;-81
2023/06/05 10:45:10;;;;;;;15.50;8.15;;;;;;;22.85;71.72;95245.63;5039947;28;20267;-81
2023/06/05 10:47:35;;;;;;;12.75;8.07;;;;;;;23.10;72.67;95250.00;5042581;28;20179;-82
2023/06/05 10:50:19;;;;;;;12.70;8.88;;;;;;;23.37;73.20;95240.69;5040283;28;20199;-82
2023/06/05 10:52:49;;;;;;;14.20;7.28;;;;;;;23.03;70.93;95205.75;5039153;28;20677;-82
2023/06/05 10:55:17;;;;;;;10.18;7.05;;;;;;;22.92;70.08;95194.28;5040274;28;20190;-82
2023/06/05 10:58:01;;;;;;;9.02;6.57;;;;;;;23.19;68.04;95251.03;5042293;28;20179;-81
2023/06/05 11:00:30;;;;;;;11.02;6.93;;;;;;;22.97;68.15;95239.91;5035412;28;20286;-82
2023/06/05 11:02:56;;;;;;;11.05;6.88;;;;;;;22.90;70.09;95232.16;5036862;28;20176;-79
2023/06/05 11:05:29;;;;;;;10.77;5.97;;;;;;;22.94;68.52;95232.41;5037236;28;20225;-79
2023/06/05 11:08:15;;;;;;;14.30;6.38;;;;;;;22.70;68.58;95228.78;5039453;28;20171;-80
2023/06/05 11:11:04;;;;;;;7.93;5.55;;;;;;;22.64;68.30;95233.38;5036492;28;20639;-84
2023/06/05 11:13:55;;;;;;;9.32;6.97;;;;;;;22.65;70.23;95226.94;5045299;28;20199;-76
2023/06/05 11:16:36;;;;;;;13.38;5.97;;;;;;;22.65;69.16;95226.94;5044713;28;20176;-81
2023/06/05 11:19:20;;;;;;;8.93;5.53;;;;;;;22.56;67.68;95228.59;5039461;28;20171;-82
2023/06/05 11:22:09;;;;;;;8.95;5.60;;;;;;;22.44;68.66;95220.06;5041600;28;20203;-81
2023/06/05 11:24:38;;;;;;;8.88;5.18;;;;;;;22.24;67.59;95196.78;5043569;28;20241;-81